Prairie City, Illinois
Current Conditions -  °F | °C
As of 7:35 PM on Wednesday 22 Oct 2014 (Local Time) from KMQB Reporting Station
Clear Clear  
Wind Chill: 46°   Ceiling: Unl
Heat Index: 47°   Visibility: 10mi
Dew Point: 38°   Wind: 5mph
Humidity: 70%   Direction: 130°SE
Pressure: 30.24"   Gusts: NA
Location:  40.62°N, 90.46°W
Report Text: KMQB 230035Z AUTO 13004KT 10SM CLR 09/03 A3024 RMK AO2 T00860034
Loading
Personal Weather Stations






























Interactive Weather Map
Tropical Storm Tracking
New forecast layout! Learn more

10-Day Weather Forecast

Advertisements
Track Severe Weather on mobile